sensor_id;sensor_type;location;lat;lon;timestamp;P1;durP1;ratioP1;P2;durP2;ratioP2
813;SDS011;389;48.710;9.392;2024-02-23T00:02:05;0.40;;;0.30;;
813;SDS011;389;48.710;9.392;2024-02-23T00:04:30;0.40;;;0.30;;
813;SDS011;389;48.710;9.392;2024-02-23T00:06:56;0.97;;;0.30;;
813;SDS011;389;48.710;9.392;2024-02-23T00:09:22;0.50;;;0.40;;
813;SDS011;389;48.710;9.392;2024-02-23T00:11:49;0.40;;;0.30;;
813;SDS011;389;48.710;9.392;2024-02-23T00:14:15;0.40;;;0.40;;
813;SDS011;389;48.710;9.392;2024-02-23T00:16:45;0.53;;;0.50;;
813;SDS011;389;48.710;9.392;2024-02-23T00:19:11;0.60;;;0.40;;
813;SDS011;389;48.710;9.392;2024-02-23T00:21:40;0.70;;;0.30;;
813;SDS011;389;48.710;9.392;2024-02-23T00:24:07;0.60;;;0.40;;
813;SDS011;389;48.710;9.392;2024-02-23T00:26:33;0.40;;;0.40;;
813;SDS011;389;48.710;9.392;2024-02-23T00:28:58;0.50;;;0.50;;
813;SDS011;389;48.710;9.392;2024-02-23T00:31:24;0.50;;;0.50;;
813;SDS011;389;48.710;9.392;2024-02-23T00:33:50;0.50;;;0.40;;
813;SDS011;389;48.710;9.392;2024-02-23T00:36:16;0.50;;;0.37;;
813;SDS011;389;48.710;9.392;2024-02-23T00:38:42;0.57;;;0.30;;
813;SDS011;389;48.710;9.392;2024-02-23T00:41:07;0.50;;;0.40;;
813;SDS011;389;48.710;9.392;2024-02-23T00:43:39;0.40;;;0.40;;
813;SDS011;389;48.710;9.392;2024-02-23T00:46:06;0.40;;;0.30;;
813;SDS011;389;48.710;9.392;2024-02-23T00:48:32;0.40;;;0.40;;
813;SDS011;389;48.710;9.392;2024-02-23T00:50:58;1.40;;;0.30;;
813;SDS011;389;48.710;9.392;2024-02-23T00:53:24;0.40;;;0.40;;
813;SDS011;389;48.710;9.392;2024-02-23T00:55:49;1.03;;;0.40;;
813;SDS011;389;48.710;9.392;2024-02-23T00:58:15;0.87;;;0.40;;
813;SDS011;389;48.710;9.392;2024-02-23T01:00:41;0.40;;;0.40;;
813;SDS011;389;48.710;9.392;2024-02-23T01:03:06;0.70;;;0.50;;
813;SDS011;389;48.710;9.392;2024-02-23T01:05:32;1.00;;;0.50;;
813;SDS011;389;48.710;9.392;2024-02-23T01:07:58;1.33;;;0.40;;
813;SDS011;389;48.710;9.392;2024-02-23T01:10:23;1.30;;;0.40;;
813;SDS011;389;48.710;9.392;2024-02-23T01:12:49;0.40;;;0.40;;
813;SDS011;389;48.710;9.392;2024-02-23T01:15:14;1.20;;;0.40;;
813;SDS011;389;48.710;9.392;2024-02-23T01:17:40;1.13;;;0.40;;
813;SDS011;389;48.710;9.392;2024-02-23T01:20:06;0.40;;;0.40;;
813;SDS011;389;48.710;9.392;2024-02-23T01:22:32;1.60;;;0.40;;
813;SDS011;389;48.710;9.392;2024-02-23T01:24:57;0.40;;;0.40;;
813;SDS011;389;48.710;9.392;2024-02-23T01:27:23;0.50;;;0.50;;
813;SDS011;389;48.710;9.392;2024-02-23T01:29:48;0.50;;;0.40;;
813;SDS011;389;48.710;9.392;2024-02-23T01:32:14;1.03;;;0.40;;
813;SDS011;389;48.710;9.392;2024-02-23T01:34:40;1.80;;;0.47;;
813;SDS011;389;48.710;9.392;2024-02-23T01:37:05;1.47;;;0.50;;
813;SDS011;389;48.710;9.392;2024-02-23T01:39:31;0.40;;;0.40;;
813;SDS011;389;48.710;9.392;2024-02-23T01:41:56;0.50;;;0.50;;
813;SDS011;389;48.710;9.392;2024-02-23T01:44:22;0.40;;;0.40;;
813;SDS011;389;48.710;9.392;2024-02-23T01:46:48;0.60;;;0.50;;
813;SDS011;389;48.710;9.392;2024-02-23T01:49:15;3.40;;;0.60;;
813;SDS011;389;48.710;9.392;2024-02-23T01:51:40;0.60;;;0.43;;
813;SDS011;389;48.710;9.392;2024-02-23T01:54:06;0.60;;;0.47;;
813;SDS011;389;48.710;9.392;2024-02-23T01:56:32;1.37;;;0.73;;
813;SDS011;389;48.710;9.392;2024-02-23T01:59:01;0.60;;;0.40;;
813;SDS011;389;48.710;9.392;2024-02-23T02:01:29;1.17;;;0.50;;
813;SDS011;389;48.710;9.392;2024-02-23T02:03:55;1.10;;;0.43;;
813;SDS011;389;48.710;9.392;2024-02-23T02:06:21;0.50;;;0.40;;
813;SDS011;389;48.710;9.392;2024-02-23T02:08:48;0.97;;;0.50;;
813;SDS011;389;48.710;9.392;2024-02-23T02:11:14;1.63;;;0.57;;
813;SDS011;389;48.710;9.392;2024-02-23T02:13:40;0.80;;;0.47;;
813;SDS011;389;48.710;9.392;2024-02-23T02:16:05;0.67;;;0.53;;
813;SDS011;389;48.710;9.392;2024-02-23T02:18:31;0.80;;;0.57;;
813;SDS011;389;48.710;9.392;2024-02-23T02:20:57;0.70;;;0.47;;
813;SDS011;389;48.710;9.392;2024-02-23T02:23:23;0.57;;;0.40;;
813;SDS011;389;48.710;9.392;2024-02-23T02:25:55;0.70;;;0.57;;
813;SDS011;389;48.710;9.392;2024-02-23T02:28:22;0.43;;;0.43;;
813;SDS011;389;48.710;9.392;2024-02-23T02:30:49;0.60;;;0.60;;
813;SDS011;389;48.710;9.392;2024-02-23T02:33:15;0.80;;;0.50;;
813;SDS011;389;48.710;9.392;2024-02-23T02:35:41;0.50;;;0.50;;
813;SDS011;389;48.710;9.392;2024-02-23T02:38:07;2.93;;;0.50;;
813;SDS011;389;48.710;9.392;2024-02-23T02:40:32;1.33;;;0.70;;
813;SDS011;389;48.710;9.392;2024-02-23T02:42:58;0.70;;;0.60;;
813;SDS011;389;48.710;9.392;2024-02-23T02:45:23;0.73;;;0.40;;
813;SDS011;389;48.710;9.392;2024-02-23T02:47:49;2.33;;;0.43;;
813;SDS011;389;48.710;9.392;2024-02-23T02:50:15;0.50;;;0.50;;
813;SDS011;389;48.710;9.392;2024-02-23T02:52:40;0.33;;;0.30;;
813;SDS011;389;48.710;9.392;2024-02-23T02:55:06;0.40;;;0.40;;
813;SDS011;389;48.710;9.392;2024-02-23T02:57:33;0.40;;;0.40;;
813;SDS011;389;48.710;9.392;2024-02-23T03:00:00;1.43;;;0.40;;
813;SDS011;389;48.710;9.392;2024-02-23T03:02:29;0.83;;;0.60;;
813;SDS011;389;48.710;9.392;2024-02-23T03:04:55;1.20;;;0.73;;
813;SDS011;389;48.710;9.392;2024-02-23T03:07:21;2.07;;;1.30;;
813;SDS011;389;48.710;9.392;2024-02-23T03:09:46;4.57;;;1.50;;
813;SDS011;389;48.710;9.392;2024-02-23T03:12:13;3.90;;;1.00;;
813;SDS011;389;48.710;9.392;2024-02-23T03:14:39;0.80;;;0.80;;
813;SDS011;389;48.710;9.392;2024-02-23T03:17:06;0.50;;;0.50;;
813;SDS011;389;48.710;9.392;2024-02-23T03:19:32;0.50;;;0.40;;
813;SDS011;389;48.710;9.392;2024-02-23T03:21:58;0.80;;;0.40;;
813;SDS011;389;48.710;9.392;2024-02-23T03:24:24;0.80;;;0.53;;
813;SDS011;389;48.710;9.392;2024-02-23T03:26:49;0.40;;;0.40;;
813;SDS011;389;48.710;9.392;2024-02-23T03:29:15;0.40;;;0.30;;
813;SDS011;389;48.710;9.392;2024-02-23T03:31:41;0.43;;;0.43;;
813;SDS011;389;48.710;9.392;2024-02-23T03:34:07;0.87;;;0.40;;
813;SDS011;389;48.710;9.392;2024-02-23T03:36:33;0.60;;;0.40;;
813;SDS011;389;48.710;9.392;2024-02-23T03:38:59;0.40;;;0.40;;
813;SDS011;389;48.710;9.392;2024-02-23T03:41:25;0.90;;;0.50;;
813;SDS011;389;48.710;9.392;2024-02-23T03:43:51;0.50;;;0.50;;
813;SDS011;389;48.710;9.392;2024-02-23T03:46:16;3.23;;;0.50;;
813;SDS011;389;48.710;9.392;2024-02-23T03:48:42;0.50;;;0.40;;
813;SDS011;389;48.710;9.392;2024-02-23T03:51:09;2.60;;;1.10;;
813;SDS011;389;48.710;9.392;2024-02-23T03:53:35;0.70;;;0.50;;
813;SDS011;389;48.710;9.392;2024-02-23T03:56:00;1.20;;;0.60;;
813;SDS011;389;48.710;9.392;2024-02-23T03:58:26;0.43;;;0.43;;
813;SDS011;389;48.710;9.392;2024-02-23T04:00:52;0.60;;;0.50;;
813;SDS011;389;48.710;9.392;2024-02-23T04:03:18;0.73;;;0.40;;
813;SDS011;389;48.710;9.392;2024-02-23T04:05:43;0.50;;;0.50;;
813;SDS011;389;48.710;9.392;2024-02-23T04:08:09;0.60;;;0.50;;
813;SDS011;389;48.710;9.392;2024-02-23T04:10:34;0.73;;;0.60;;
813;SDS011;389;48.710;9.392;2024-02-23T04:13:00;0.70;;;0.60;;
813;SDS011;389;48.710;9.392;2024-02-23T04:15:26;0.80;;;0.50;;
813;SDS011;389;48.710;9.392;2024-02-23T04:17:52;0.50;;;0.50;;
813;SDS011;389;48.710;9.392;2024-02-23T04:20:17;0.60;;;0.60;;
813;SDS011;389;48.710;9.392;2024-02-23T04:22:43;0.57;;;0.57;;
813;SDS011;389;48.710;9.392;2024-02-23T04:25:09;1.20;;;0.50;;
813;SDS011;389;48.710;9.392;2024-02-23T04:27:35;0.50;;;0.50;;
813;SDS011;389;48.710;9.392;2024-02-23T04:30:00;0.60;;;0.50;;
813;SDS011;389;48.710;9.392;2024-02-23T04:32:26;0.47;;;0.47;;
813;SDS011;389;48.710;9.392;2024-02-23T04:34:52;0.83;;;0.53;;
813;SDS011;389;48.710;9.392;2024-02-23T04:37:17;1.07;;;0.50;;
813;SDS011;389;48.710;9.392;2024-02-23T04:39:43;1.03;;;0.50;;
813;SDS011;389;48.710;9.392;2024-02-23T04:42:09;1.90;;;1.40;;
813;SDS011;389;48.710;9.392;2024-02-23T04:44:35;5.47;;;3.70;;
813;SDS011;389;48.710;9.392;2024-02-23T04:47:01;6.80;;;2.90;;
813;SDS011;389;48.710;9.392;2024-02-23T04:49:26;3.77;;;2.57;;
813;SDS011;389;48.710;9.392;2024-02-23T04:51:52;2.03;;;1.50;;
813;SDS011;389;48.710;9.392;2024-02-23T04:54:18;1.27;;;0.50;;
813;SDS011;389;48.710;9.392;2024-02-23T04:56:44;1.57;;;0.60;;
813;SDS011;389;48.710;9.392;2024-02-23T04:59:09;2.30;;;0.70;;
813;SDS011;389;48.710;9.392;2024-02-23T05:01:36;0.80;;;0.77;;
813;SDS011;389;48.710;9.392;2024-02-23T05:04:02;1.23;;;1.13;;
813;SDS011;389;48.710;9.392;2024-02-23T05:06:28;2.27;;;1.60;;
813;SDS011;389;48.710;9.392;2024-02-23T05:08:54;2.67;;;1.57;;
813;SDS011;389;48.710;9.392;2024-02-23T05:11:20;2.33;;;1.20;;
813;SDS011;389;48.710;9.392;2024-02-23T05:13:45;1.90;;;0.97;;
813;SDS011;389;48.710;9.392;2024-02-23T05:16:13;0.90;;;0.90;;
813;SDS011;389;48.710;9.392;2024-02-23T05:18:39;1.00;;;0.90;;
813;SDS011;389;48.710;9.392;2024-02-23T05:21:05;0.80;;;0.80;;
813;SDS011;389;48.710;9.392;2024-02-23T05:23:31;1.10;;;0.77;;
813;SDS011;389;48.710;9.392;2024-02-23T05:25:56;0.67;;;0.67;;
813;SDS011;389;48.710;9.392;2024-02-23T05:28:22;2.40;;;0.50;;
813;SDS011;389;48.710;9.392;2024-02-23T05:30:47;6.50;;;0.73;;
813;SDS011;389;48.710;9.392;2024-02-23T05:33:13;0.53;;;0.50;;
813;SDS011;389;48.710;9.392;2024-02-23T05:35:39;0.83;;;0.83;;
813;SDS011;389;48.710;9.392;2024-02-23T05:38:04;0.80;;;0.80;;
813;SDS011;389;48.710;9.392;2024-02-23T05:40:31;0.67;;;0.67;;
813;SDS011;389;48.710;9.392;2024-02-23T05:42:59;0.80;;;0.80;;
813;SDS011;389;48.710;9.392;2024-02-23T05:45:25;1.10;;;0.80;;
813;SDS011;389;48.710;9.392;2024-02-23T05:47:50;1.00;;;0.70;;
813;SDS011;389;48.710;9.392;2024-02-23T05:50:16;0.93;;;0.70;;
813;SDS011;389;48.710;9.392;2024-02-23T05:52:42;0.60;;;0.60;;
813;SDS011;389;48.710;9.392;2024-02-23T05:55:07;0.57;;;0.57;;
813;SDS011;389;48.710;9.392;2024-02-23T05:57:33;1.30;;;0.83;;
813;SDS011;389;48.710;9.392;2024-02-23T05:59:59;0.97;;;0.67;;
813;SDS011;389;48.710;9.392;2024-02-23T06:02:25;1.03;;;0.63;;
813;SDS011;389;48.710;9.392;2024-02-23T06:04:50;0.93;;;0.50;;
813;SDS011;389;48.710;9.392;2024-02-23T06:07:16;0.80;;;0.80;;
813;SDS011;389;48.710;9.392;2024-02-23T06:09:42;1.20;;;0.90;;
813;SDS011;389;48.710;9.392;2024-02-23T06:12:08;0.80;;;0.80;;
813;SDS011;389;48.710;9.392;2024-02-23T06:14:34;2.10;;;0.80;;
813;SDS011;389;48.710;9.392;2024-02-23T06:17:00;0.60;;;0.60;;
813;SDS011;389;48.710;9.392;2024-02-23T06:19:26;2.70;;;0.90;;
813;SDS011;389;48.710;9.392;2024-02-23T06:21:52;1.37;;;0.77;;
813;SDS011;389;48.710;9.392;2024-02-23T06:24:17;1.23;;;0.83;;
813;SDS011;389;48.710;9.392;2024-02-23T06:26:43;1.20;;;0.90;;
813;SDS011;389;48.710;9.392;2024-02-23T06:29:10;1.80;;;0.90;;
813;SDS011;389;48.710;9.392;2024-02-23T06:31:37;1.60;;;1.00;;
813;SDS011;389;48.710;9.392;2024-02-23T06:34:04;0.97;;;0.80;;
813;SDS011;389;48.710;9.392;2024-02-23T06:36:30;1.67;;;0.83;;
813;SDS011;389;48.710;9.392;2024-02-23T06:38:55;2.10;;;1.10;;
813;SDS011;389;48.710;9.392;2024-02-23T06:41:21;1.80;;;1.50;;
813;SDS011;389;48.710;9.392;2024-02-23T06:43:47;6.77;;;3.53;;
813;SDS011;389;48.710;9.392;2024-02-23T06:46:12;20.20;;;7.97;;
813;SDS011;389;48.710;9.392;2024-02-23T06:48:38;18.90;;;8.33;;
813;SDS011;389;48.710;9.392;2024-02-23T06:51:06;8.97;;;4.67;;
813;SDS011;389;48.710;9.392;2024-02-23T06:53:34;4.93;;;2.60;;
813;SDS011;389;48.710;9.392;2024-02-23T06:56:00;1.60;;;1.50;;
813;SDS011;389;48.710;9.392;2024-02-23T06:58:26;1.53;;;0.93;;
813;SDS011;389;48.710;9.392;2024-02-23T07:00:51;1.50;;;1.20;;
813;SDS011;389;48.710;9.392;2024-02-23T07:03:17;1.20;;;1.10;;
813;SDS011;389;48.710;9.392;2024-02-23T07:05:43;2.70;;;1.00;;
813;SDS011;389;48.710;9.392;2024-02-23T07:08:10;3.57;;;1.83;;
813;SDS011;389;48.710;9.392;2024-02-23T07:10:36;6.40;;;2.40;;
813;SDS011;389;48.710;9.392;2024-02-23T07:13:01;2.17;;;1.93;;
813;SDS011;389;48.710;9.392;2024-02-23T07:15:27;3.60;;;3.30;;
813;SDS011;389;48.710;9.392;2024-02-23T07:17:53;3.93;;;2.80;;
813;SDS011;389;48.710;9.392;2024-02-23T07:20:18;1.70;;;1.60;;
813;SDS011;389;48.710;9.392;2024-02-23T07:22:47;2.53;;;1.80;;
813;SDS011;389;48.710;9.392;2024-02-23T07:25:16;1.60;;;1.50;;
813;SDS011;389;48.710;9.392;2024-02-23T07:27:42;2.27;;;1.70;;
813;SDS011;389;48.710;9.392;2024-02-23T07:30:08;3.00;;;1.57;;
813;SDS011;389;48.710;9.392;2024-02-23T07:32:34;4.20;;;1.70;;
813;SDS011;389;48.710;9.392;2024-02-23T07:35:00;3.10;;;1.90;;
813;SDS011;389;48.710;9.392;2024-02-23T07:37:26;3.63;;;2.30;;
813;SDS011;389;48.710;9.392;2024-02-23T07:39:52;4.47;;;2.80;;
813;SDS011;389;48.710;9.392;2024-02-23T07:42:18;5.30;;;2.90;;
813;SDS011;389;48.710;9.392;2024-02-23T07:44:44;4.23;;;2.90;;
813;SDS011;389;48.710;9.392;2024-02-23T07:47:10;2.60;;;2.30;;
813;SDS011;389;48.710;9.392;2024-02-23T07:49:36;3.93;;;2.33;;
813;SDS011;389;48.710;9.392;2024-02-23T07:52:02;6.10;;;3.47;;
813;SDS011;389;48.710;9.392;2024-02-23T07:54:28;4.40;;;2.37;;
813;SDS011;389;48.710;9.392;2024-02-23T07:56:54;4.07;;;2.70;;
813;SDS011;389;48.710;9.392;2024-02-23T07:59:20;3.40;;;2.90;;
813;SDS011;389;48.710;9.392;2024-02-23T08:01:45;2.80;;;2.20;;
813;SDS011;389;48.710;9.392;2024-02-23T08:04:12;3.57;;;2.40;;
813;SDS011;389;48.710;9.392;2024-02-23T08:06:38;3.20;;;2.27;;
813;SDS011;389;48.710;9.392;2024-02-23T08:09:04;5.57;;;2.43;;
813;SDS011;389;48.710;9.392;2024-02-23T08:11:30;2.57;;;2.10;;
813;SDS011;389;48.710;9.392;2024-02-23T08:13:55;3.17;;;2.13;;
813;SDS011;389;48.710;9.392;2024-02-23T08:16:21;3.40;;;2.40;;
813;SDS011;389;48.710;9.392;2024-02-23T08:18:46;3.07;;;2.30;;
813;SDS011;389;48.710;9.392;2024-02-23T08:21:12;3.97;;;2.70;;
813;SDS011;389;48.710;9.392;2024-02-23T08:23:38;5.00;;;2.37;;
813;SDS011;389;48.710;9.392;2024-02-23T08:26:03;5.73;;;2.47;;
813;SDS011;389;48.710;9.392;2024-02-23T08:28:29;3.40;;;1.67;;
813;SDS011;389;48.710;9.392;2024-02-23T08:30:55;1.57;;;1.27;;
813;SDS011;389;48.710;9.392;2024-02-23T08:33:20;2.47;;;1.23;;
813;SDS011;389;48.710;9.392;2024-02-23T08:35:46;2.20;;;1.20;;
813;SDS011;389;48.710;9.392;2024-02-23T08:38:13;1.70;;;1.60;;
813;SDS011;389;48.710;9.392;2024-02-23T08:40:39;2.10;;;1.50;;
813;SDS011;389;48.710;9.392;2024-02-23T08:43:05;2.40;;;1.40;;
813;SDS011;389;48.710;9.392;2024-02-23T08:45:30;3.17;;;1.67;;
813;SDS011;389;48.710;9.392;2024-02-23T08:47:56;3.53;;;2.40;;
813;SDS011;389;48.710;9.392;2024-02-23T08:50:22;3.63;;;2.50;;
813;SDS011;389;48.710;9.392;2024-02-23T08:52:47;9.47;;;3.30;;
813;SDS011;389;48.710;9.392;2024-02-23T08:55:13;3.53;;;2.10;;
813;SDS011;389;48.710;9.392;2024-02-23T08:57:38;1.80;;;1.27;;
813;SDS011;389;48.710;9.392;2024-02-23T09:00:04;2.40;;;1.60;;
813;SDS011;389;48.710;9.392;2024-02-23T09:02:30;3.70;;;1.50;;
813;SDS011;389;48.710;9.392;2024-02-23T09:04:57;3.30;;;1.57;;
813;SDS011;389;48.710;9.392;2024-02-23T09:07:23;1.90;;;1.10;;
813;SDS011;389;48.710;9.392;2024-02-23T09:09:49;2.17;;;1.20;;
813;SDS011;389;48.710;9.392;2024-02-23T09:12:18;1.20;;;0.93;;
813;SDS011;389;48.710;9.392;2024-02-23T09:14:43;2.00;;;1.10;;
813;SDS011;389;48.710;9.392;2024-02-23T09:17:09;1.53;;;0.70;;
813;SDS011;389;48.710;9.392;2024-02-23T09:19:36;2.70;;;1.10;;
813;SDS011;389;48.710;9.392;2024-02-23T09:22:02;3.33;;;1.23;;
813;SDS011;389;48.710;9.392;2024-02-23T09:24:28;2.73;;;1.50;;
813;SDS011;389;48.710;9.392;2024-02-23T09:26:54;1.70;;;0.90;;
813;SDS011;389;48.710;9.392;2024-02-23T09:29:19;2.70;;;0.97;;
813;SDS011;389;48.710;9.392;2024-02-23T09:31:45;3.70;;;1.00;;
813;SDS011;389;48.710;9.392;2024-02-23T09:34:11;6.27;;;3.73;;
813;SDS011;389;48.710;9.392;2024-02-23T09:36:36;8.30;;;5.63;;
813;SDS011;389;48.710;9.392;2024-02-23T09:39:02;6.63;;;4.07;;
813;SDS011;389;48.710;9.392;2024-02-23T09:41:29;1.60;;;1.50;;
813;SDS011;389;48.710;9.392;2024-02-23T09:43:58;3.87;;;1.13;;
813;SDS011;389;48.710;9.392;2024-02-23T09:46:26;1.63;;;1.00;;
813;SDS011;389;48.710;9.392;2024-02-23T09:48:51;4.70;;;1.60;;
813;SDS011;389;48.710;9.392;2024-02-23T09:51:18;1.80;;;1.30;;
813;SDS011;389;48.710;9.392;2024-02-23T09:53:45;1.30;;;1.20;;
813;SDS011;389;48.710;9.392;2024-02-23T09:56:14;1.97;;;1.30;;
813;SDS011;389;48.710;9.392;2024-02-23T09:58:42;2.20;;;1.20;;
813;SDS011;389;48.710;9.392;2024-02-23T10:01:08;2.00;;;0.70;;
813;SDS011;389;48.710;9.392;2024-02-23T10:03:36;1.73;;;1.20;;
813;SDS011;389;48.710;9.392;2024-02-23T10:06:03;0.80;;;0.80;;
813;SDS011;389;48.710;9.392;2024-02-23T10:08:29;1.10;;;1.10;;
813;SDS011;389;48.710;9.392;2024-02-23T10:10:55;2.07;;;1.07;;
813;SDS011;389;48.710;9.392;2024-02-23T10:13:24;1.60;;;0.90;;
813;SDS011;389;48.710;9.392;2024-02-23T10:15:53;1.43;;;0.97;;
813;SDS011;389;48.710;9.392;2024-02-23T10:18:18;1.60;;;1.10;;
813;SDS011;389;48.710;9.392;2024-02-23T10:20:44;1.10;;;1.00;;
813;SDS011;389;48.710;9.392;2024-02-23T10:23:11;2.87;;;1.03;;
813;SDS011;389;48.710;9.392;2024-02-23T10:25:37;5.10;;;2.80;;
813;SDS011;389;48.710;9.392;2024-02-23T10:28:03;3.23;;;1.50;;
813;SDS011;389;48.710;9.392;2024-02-23T10:30:30;3.90;;;1.27;;
813;SDS011;389;48.710;9.392;2024-02-23T10:32:56;3.33;;;1.10;;
813;SDS011;389;48.710;9.392;2024-02-23T10:35:23;0.87;;;0.80;;
813;SDS011;389;48.710;9.392;2024-02-23T10:37:50;1.23;;;1.13;;
813;SDS011;389;48.710;9.392;2024-02-23T10:40:17;2.70;;;1.00;;
813;SDS011;389;48.710;9.392;2024-02-23T10:42:44;1.70;;;1.20;;
813;SDS011;389;48.710;9.392;2024-02-23T10:45:17;4.40;;;2.20;;
813;SDS011;389;48.710;9.392;2024-02-23T10:47:44;2.30;;;1.37;;
813;SDS011;389;48.710;9.392;2024-02-23T10:50:10;2.40;;;0.90;;
813;SDS011;389;48.710;9.392;2024-02-23T10:52:40;1.37;;;0.80;;
813;SDS011;389;48.710;9.392;2024-02-23T10:55:07;1.83;;;0.73;;
813;SDS011;389;48.710;9.392;2024-02-23T10:57:34;3.37;;;0.80;;
813;SDS011;389;48.710;9.392;2024-02-23T11:00:01;1.43;;;0.90;;
813;SDS011;389;48.710;9.392;2024-02-23T11:02:56;3.00;;;1.10;;
813;SDS011;389;48.710;9.392;2024-02-23T11:05:21;2.03;;;0.90;;
813;SDS011;389;48.710;9.392;2024-02-23T11:07:47;6.53;;;2.80;;
813;SDS011;389;48.710;9.392;2024-02-23T11:10:17;4.20;;;2.57;;
813;SDS011;389;48.710;9.392;2024-02-23T11:12:43;2.90;;;1.20;;
813;SDS011;389;48.710;9.392;2024-02-23T11:15:09;5.70;;;4.00;;
813;SDS011;389;48.710;9.392;2024-02-23T11:17:49;13.23;;;4.87;;
813;SDS011;389;48.710;9.392;2024-02-23T11:20:15;5.77;;;2.77;;
813;SDS011;389;48.710;9.392;2024-02-23T11:22:41;5.63;;;2.60;;
813;SDS011;389;48.710;9.392;2024-02-23T11:25:07;5.27;;;3.47;;
813;SDS011;389;48.710;9.392;2024-02-23T11:27:35;5.37;;;1.87;;
813;SDS011;389;48.710;9.392;2024-02-23T11:30:04;2.50;;;1.40;;
813;SDS011;389;48.710;9.392;2024-02-23T11:35:09;2.50;;;1.53;;
813;SDS011;389;48.710;9.392;2024-02-23T11:40:23;3.13;;;1.70;;
813;SDS011;389;48.710;9.392;2024-02-23T11:42:57;3.00;;;1.43;;
813;SDS011;389;48.710;9.392;2024-02-23T11:45:30;2.40;;;1.07;;
813;SDS011;389;48.710;9.392;2024-02-23T11:47:56;1.33;;;1.23;;
813;SDS011;389;48.710;9.392;2024-02-23T11:50:21;2.27;;;1.17;;
813;SDS011;389;48.710;9.392;2024-02-23T11:52:47;2.00;;;1.10;;
813;SDS011;389;48.710;9.392;2024-02-23T11:55:17;3.20;;;1.53;;
813;SDS011;389;48.710;9.392;2024-02-23T11:57:47;3.87;;;2.50;;
813;SDS011;389;48.710;9.392;2024-02-23T12:00:13;3.43;;;1.60;;
813;SDS011;389;48.710;9.392;2024-02-23T12:02:39;3.03;;;1.90;;
813;SDS011;389;48.710;9.392;2024-02-23T12:05:04;1.87;;;1.10;;
813;SDS011;389;48.710;9.392;2024-02-23T12:07:30;2.50;;;0.90;;
813;SDS011;389;48.710;9.392;2024-02-23T12:10:00;1.47;;;0.73;;
813;SDS011;389;48.710;9.392;2024-02-23T12:12:26;3.50;;;1.20;;
813;SDS011;389;48.710;9.392;2024-02-23T12:14:52;4.03;;;0.97;;
813;SDS011;389;48.710;9.392;2024-02-23T12:17:18;1.10;;;0.80;;
813;SDS011;389;48.710;9.392;2024-02-23T12:19:44;3.07;;;1.20;;
813;SDS011;389;48.710;9.392;2024-02-23T12:22:10;2.00;;;1.07;;
813;SDS011;389;48.710;9.392;2024-02-23T12:24:36;3.33;;;1.10;;
813;SDS011;389;48.710;9.392;2024-02-23T12:27:01;1.20;;;0.90;;
813;SDS011;389;48.710;9.392;2024-02-23T12:29:27;1.00;;;0.83;;
813;SDS011;389;48.710;9.392;2024-02-23T12:32:02;3.37;;;0.97;;
813;SDS011;389;48.710;9.392;2024-02-23T12:34:31;1.10;;;0.80;;
813;SDS011;389;48.710;9.392;2024-02-23T12:36:57;2.93;;;0.80;;
813;SDS011;389;48.710;9.392;2024-02-23T12:39:23;1.03;;;0.70;;
813;SDS011;389;48.710;9.392;2024-02-23T12:41:48;1.53;;;1.00;;
813;SDS011;389;48.710;9.392;2024-02-23T12:44:15;2.17;;;1.03;;
813;SDS011;389;48.710;9.392;2024-02-23T12:46:41;1.73;;;0.97;;
813;SDS011;389;48.710;9.392;2024-02-23T12:49:06;3.13;;;0.90;;
813;SDS011;389;48.710;9.392;2024-02-23T12:51:32;4.40;;;1.30;;
813;SDS011;389;48.710;9.392;2024-02-23T12:53:59;2.57;;;0.90;;
813;SDS011;389;48.710;9.392;2024-02-23T12:56:25;4.70;;;2.70;;
813;SDS011;389;48.710;9.392;2024-02-23T12:58:51;2.40;;;1.53;;
813;SDS011;389;48.710;9.392;2024-02-23T13:01:18;4.20;;;2.30;;
813;SDS011;389;48.710;9.392;2024-02-23T13:03:44;2.60;;;2.13;;
813;SDS011;389;48.710;9.392;2024-02-23T13:06:10;4.47;;;2.27;;
813;SDS011;389;48.710;9.392;2024-02-23T13:08:35;5.03;;;1.20;;
813;SDS011;389;48.710;9.392;2024-02-23T13:11:01;3.23;;;1.00;;
813;SDS011;389;48.710;9.392;2024-02-23T13:13:28;1.90;;;1.37;;
813;SDS011;389;48.710;9.392;2024-02-23T13:15:59;2.70;;;1.37;;
813;SDS011;389;48.710;9.392;2024-02-23T13:18:25;3.83;;;1.33;;
813;SDS011;389;48.710;9.392;2024-02-23T13:20:50;3.83;;;1.37;;
813;SDS011;389;48.710;9.392;2024-02-23T13:23:16;2.67;;;1.50;;
813;SDS011;389;48.710;9.392;2024-02-23T13:25:45;7.10;;;3.23;;
813;SDS011;389;48.710;9.392;2024-02-23T13:28:11;3.43;;;2.50;;
813;SDS011;389;48.710;9.392;2024-02-23T13:30:37;4.03;;;1.57;;
813;SDS011;389;48.710;9.392;2024-02-23T13:33:05;3.87;;;1.17;;
813;SDS011;389;48.710;9.392;2024-02-23T13:35:36;3.27;;;2.10;;
813;SDS011;389;48.710;9.392;2024-02-23T13:38:01;3.17;;;1.73;;
813;SDS011;389;48.710;9.392;2024-02-23T13:46:51;3.70;;;1.73;;
813;SDS011;389;48.710;9.392;2024-02-23T13:49:16;2.40;;;1.33;;
813;SDS011;389;48.710;9.392;2024-02-23T13:51:42;5.40;;;1.93;;
813;SDS011;389;48.710;9.392;2024-02-23T13:54:11;3.30;;;2.00;;
813;SDS011;389;48.710;9.392;2024-02-23T13:56:36;5.07;;;3.20;;
813;SDS011;389;48.710;9.392;2024-02-23T13:59:03;5.67;;;3.67;;
813;SDS011;389;48.710;9.392;2024-02-23T14:01:29;7.87;;;5.93;;
813;SDS011;389;48.710;9.392;2024-02-23T14:03:54;1.63;;;1.50;;
813;SDS011;389;48.710;9.392;2024-02-23T14:06:20;2.17;;;1.60;;
813;SDS011;389;48.710;9.392;2024-02-23T14:08:46;2.60;;;1.60;;
813;SDS011;389;48.710;9.392;2024-02-23T14:11:12;5.07;;;1.60;;
813;SDS011;389;48.710;9.392;2024-02-23T14:13:38;1.20;;;1.03;;
813;SDS011;389;48.710;9.392;2024-02-23T14:16:04;2.40;;;1.43;;
813;SDS011;389;48.710;9.392;2024-02-23T14:18:30;2.73;;;1.23;;
813;SDS011;389;48.710;9.392;2024-02-23T14:20:58;7.50;;;1.27;;
813;SDS011;389;48.710;9.392;2024-02-23T14:23:24;2.33;;;1.10;;
813;SDS011;389;48.710;9.392;2024-02-23T14:25:50;5.03;;;1.30;;
813;SDS011;389;48.710;9.392;2024-02-23T14:28:16;3.23;;;1.10;;
813;SDS011;389;48.710;9.392;2024-02-23T14:30:42;2.60;;;1.23;;
813;SDS011;389;48.710;9.392;2024-02-23T14:33:08;2.97;;;1.23;;
813;SDS011;389;48.710;9.392;2024-02-23T14:35:33;2.83;;;1.10;;
813;SDS011;389;48.710;9.392;2024-02-23T14:37:59;1.70;;;1.00;;
813;SDS011;389;48.710;9.392;2024-02-23T14:40:24;2.40;;;1.00;;
813;SDS011;389;48.710;9.392;2024-02-23T14:42:50;3.77;;;1.60;;
813;SDS011;389;48.710;9.392;2024-02-23T14:45:15;5.17;;;2.13;;
813;SDS011;389;48.710;9.392;2024-02-23T14:47:41;3.87;;;1.93;;
813;SDS011;389;48.710;9.392;2024-02-23T14:50:09;2.97;;;1.30;;
813;SDS011;389;48.710;9.392;2024-02-23T14:52:35;3.70;;;1.07;;
813;SDS011;389;48.710;9.392;2024-02-23T14:55:01;3.30;;;1.07;;
813;SDS011;389;48.710;9.392;2024-02-23T14:57:26;3.27;;;1.50;;
813;SDS011;389;48.710;9.392;2024-02-23T14:59:52;2.73;;;0.90;;
813;SDS011;389;48.710;9.392;2024-02-23T15:02:21;9.67;;;4.37;;
813;SDS011;389;48.710;9.392;2024-02-23T15:04:47;5.10;;;3.10;;
813;SDS011;389;48.710;9.392;2024-02-23T15:07:13;9.83;;;3.20;;
813;SDS011;389;48.710;9.392;2024-02-23T15:09:39;4.50;;;3.00;;
813;SDS011;389;48.710;9.392;2024-02-23T15:12:05;4.43;;;3.50;;
813;SDS011;389;48.710;9.392;2024-02-23T15:14:31;3.07;;;2.67;;
813;SDS011;389;48.710;9.392;2024-02-23T15:16:57;5.80;;;3.43;;
813;SDS011;389;48.710;9.392;2024-02-23T15:19:22;3.10;;;2.10;;
813;SDS011;389;48.710;9.392;2024-02-23T15:21:48;14.33;;;7.63;;
813;SDS011;389;48.710;9.392;2024-02-23T15:24:14;15.70;;;7.00;;
813;SDS011;389;48.710;9.392;2024-02-23T15:26:43;6.50;;;2.23;;
813;SDS011;389;48.710;9.392;2024-02-23T15:29:10;2.90;;;1.30;;
813;SDS011;389;48.710;9.392;2024-02-23T15:31:35;4.87;;;1.83;;
813;SDS011;389;48.710;9.392;2024-02-23T15:34:02;2.53;;;1.13;;
813;SDS011;389;48.710;9.392;2024-02-23T15:36:28;7.00;;;2.00;;
813;SDS011;389;48.710;9.392;2024-02-23T15:38:54;4.33;;;2.60;;
813;SDS011;389;48.710;9.392;2024-02-23T15:41:24;3.40;;;1.00;;
813;SDS011;389;48.710;9.392;2024-02-23T15:43:53;13.10;;;4.50;;
813;SDS011;389;48.710;9.392;2024-02-23T15:46:18;2.00;;;1.50;;
813;SDS011;389;48.710;9.392;2024-02-23T15:48:44;3.23;;;1.17;;
813;SDS011;389;48.710;9.392;2024-02-23T15:51:10;4.07;;;2.60;;